sensor_id;sensor_type;location;lat;lon;timestamp;P1;durP1;ratioP1;P2;durP2;ratioP2
9716;SDS011;4897;43.570;27.832;2023-12-20T00:01:57;81.38;;;53.70;;
9716;SDS011;4897;43.570;27.832;2023-12-20T00:04:24;77.65;;;54.38;;
9716;SDS011;4897;43.570;27.832;2023-12-20T00:06:51;83.13;;;51.33;;
9716;SDS011;4897;43.570;27.832;2023-12-20T00:09:18;73.25;;;50.20;;
9716;SDS011;4897;43.570;27.832;2023-12-20T00:11:46;70.75;;;49.38;;
9716;SDS011;4897;43.570;27.832;2023-12-20T00:14:13;66.72;;;48.25;;
9716;SDS011;4897;43.570;27.832;2023-12-20T00:16:40;64.13;;;44.45;;
9716;SDS011;4897;43.570;27.832;2023-12-20T00:19:07;68.20;;;46.90;;
9716;SDS011;4897;43.570;27.832;2023-12-20T00:21:33;73.07;;;56.25;;
9716;SDS011;4897;43.570;27.832;2023-12-20T00:24:00;66.75;;;48.33;;
9716;SDS011;4897;43.570;27.832;2023-12-20T00:26:27;61.78;;;43.38;;
9716;SDS011;4897;43.570;27.832;2023-12-20T00:28:55;61.20;;;46.20;;
9716;SDS011;4897;43.570;27.832;2023-12-20T00:31:22;77.00;;;54.50;;
9716;SDS011;4897;43.570;27.832;2023-12-20T00:33:49;72.15;;;50.92;;
9716;SDS011;4897;43.570;27.832;2023-12-20T00:36:16;61.22;;;49.60;;
9716;SDS011;4897;43.570;27.832;2023-12-20T00:38:43;57.28;;;40.83;;
9716;SDS011;4897;43.570;27.832;2023-12-20T00:41:10;59.85;;;41.03;;
9716;SDS011;4897;43.570;27.832;2023-12-20T00:43:39;58.10;;;42.40;;
9716;SDS011;4897;43.570;27.832;2023-12-20T00:46:07;52.40;;;37.58;;
9716;SDS011;4897;43.570;27.832;2023-12-20T00:48:34;53.60;;;37.53;;
9716;SDS011;4897;43.570;27.832;2023-12-20T00:51:01;55.97;;;41.55;;
9716;SDS011;4897;43.570;27.832;2023-12-20T00:53:28;42.85;;;34.55;;
9716;SDS011;4897;43.570;27.832;2023-12-20T00:55:55;50.65;;;43.70;;
9716;SDS011;4897;43.570;27.832;2023-12-20T00:58:23;42.83;;;36.80;;
9716;SDS011;4897;43.570;27.832;2023-12-20T01:00:51;30.95;;;26.95;;
9716;SDS011;4897;43.570;27.832;2023-12-20T01:03:21;28.48;;;25.42;;
9716;SDS011;4897;43.570;27.832;2023-12-20T01:05:48;28.20;;;25.20;;
9716;SDS011;4897;43.570;27.832;2023-12-20T01:08:15;30.50;;;27.30;;
9716;SDS011;4897;43.570;27.832;2023-12-20T01:10:42;26.42;;;23.77;;
9716;SDS011;4897;43.570;27.832;2023-12-20T01:13:09;27.70;;;24.73;;
9716;SDS011;4897;43.570;27.832;2023-12-20T01:15:35;23.83;;;21.40;;
9716;SDS011;4897;43.570;27.832;2023-12-20T01:18:02;22.67;;;20.17;;
9716;SDS011;4897;43.570;27.832;2023-12-20T01:20:31;24.00;;;19.88;;
9716;SDS011;4897;43.570;27.832;2023-12-20T01:22:58;23.20;;;20.70;;
9716;SDS011;4897;43.570;27.832;2023-12-20T01:25:25;27.25;;;23.67;;
9716;SDS011;4897;43.570;27.832;2023-12-20T01:27:52;25.00;;;21.73;;
9716;SDS011;4897;43.570;27.832;2023-12-20T01:30:19;26.60;;;23.35;;
9716;SDS011;4897;43.570;27.832;2023-12-20T01:32:46;25.80;;;22.55;;
9716;SDS011;4897;43.570;27.832;2023-12-20T01:35:12;27.45;;;22.13;;
9716;SDS011;4897;43.570;27.832;2023-12-20T01:37:41;26.77;;;23.95;;
9716;SDS011;4897;43.570;27.832;2023-12-20T01:40:08;33.47;;;29.88;;
9716;SDS011;4897;43.570;27.832;2023-12-20T01:42:36;34.13;;;30.77;;
9716;SDS011;4897;43.570;27.832;2023-12-20T01:45:03;29.52;;;26.60;;
9716;SDS011;4897;43.570;27.832;2023-12-20T01:47:30;31.08;;;28.13;;
9716;SDS011;4897;43.570;27.832;2023-12-20T01:49:57;37.85;;;33.90;;
9716;SDS011;4897;43.570;27.832;2023-12-20T01:52:24;29.08;;;26.08;;
9716;SDS011;4897;43.570;27.832;2023-12-20T01:54:54;29.23;;;26.25;;
9716;SDS011;4897;43.570;27.832;2023-12-20T01:57:27;31.30;;;28.17;;
9716;SDS011;4897;43.570;27.832;2023-12-20T01:59:55;31.60;;;28.27;;
9716;SDS011;4897;43.570;27.832;2023-12-20T02:02:22;38.08;;;31.52;;
9716;SDS011;4897;43.570;27.832;2023-12-20T02:04:49;38.50;;;32.35;;
9716;SDS011;4897;43.570;27.832;2023-12-20T02:07:17;38.78;;;31.83;;
9716;SDS011;4897;43.570;27.832;2023-12-20T02:09:44;32.63;;;29.13;;
9716;SDS011;4897;43.570;27.832;2023-12-20T02:12:13;31.10;;;27.20;;
9716;SDS011;4897;43.570;27.832;2023-12-20T02:14:39;31.58;;;27.23;;
9716;SDS011;4897;43.570;27.832;2023-12-20T02:17:06;31.30;;;27.98;;
9716;SDS011;4897;43.570;27.832;2023-12-20T02:19:33;29.50;;;26.70;;
9716;SDS011;4897;43.570;27.832;2023-12-20T02:22:08;31.92;;;26.77;;
9716;SDS011;4897;43.570;27.832;2023-12-20T02:24:41;30.50;;;24.45;;
9716;SDS011;4897;43.570;27.832;2023-12-20T02:27:08;45.95;;;41.25;;
9716;SDS011;4897;43.570;27.832;2023-12-20T02:29:35;46.60;;;41.75;;
9716;SDS011;4897;43.570;27.832;2023-12-20T02:32:02;46.15;;;41.30;;
9716;SDS011;4897;43.570;27.832;2023-12-20T02:34:29;30.27;;;26.80;;
9716;SDS011;4897;43.570;27.832;2023-12-20T02:36:56;31.17;;;24.58;;
9716;SDS011;4897;43.570;27.832;2023-12-20T02:39:24;37.13;;;29.65;;
9716;SDS011;4897;43.570;27.832;2023-12-20T02:41:54;38.35;;;34.30;;
9716;SDS011;4897;43.570;27.832;2023-12-20T02:44:21;44.83;;;40.38;;
9716;SDS011;4897;43.570;27.832;2023-12-20T02:46:47;33.00;;;29.48;;
9716;SDS011;4897;43.570;27.832;2023-12-20T02:49:14;40.75;;;36.85;;
9716;SDS011;4897;43.570;27.832;2023-12-20T02:51:41;47.08;;;41.38;;
9716;SDS011;4897;43.570;27.832;2023-12-20T02:54:08;43.95;;;39.63;;
9716;SDS011;4897;43.570;27.832;2023-12-20T02:56:39;42.65;;;37.65;;
9716;SDS011;4897;43.570;27.832;2023-12-20T02:59:06;42.10;;;37.17;;
9716;SDS011;4897;43.570;27.832;2023-12-20T03:01:34;39.08;;;34.97;;
9716;SDS011;4897;43.570;27.832;2023-12-20T03:04:01;37.10;;;33.60;;
9716;SDS011;4897;43.570;27.832;2023-12-20T03:06:28;31.30;;;28.50;;
9716;SDS011;4897;43.570;27.832;2023-12-20T03:08:54;28.25;;;25.75;;
9716;SDS011;4897;43.570;27.832;2023-12-20T03:11:21;30.70;;;27.67;;
9716;SDS011;4897;43.570;27.832;2023-12-20T03:13:54;27.98;;;25.48;;
9716;SDS011;4897;43.570;27.832;2023-12-20T03:16:20;30.95;;;28.08;;
9716;SDS011;4897;43.570;27.832;2023-12-20T03:18:47;31.85;;;28.85;;
9716;SDS011;4897;43.570;27.832;2023-12-20T03:21:14;30.60;;;27.50;;
9716;SDS011;4897;43.570;27.832;2023-12-20T03:23:41;31.52;;;28.27;;
9716;SDS011;4897;43.570;27.832;2023-12-20T03:26:08;29.77;;;26.73;;
9716;SDS011;4897;43.570;27.832;2023-12-20T03:28:36;28.02;;;25.10;;
9716;SDS011;4897;43.570;27.832;2023-12-20T03:31:04;30.70;;;27.70;;
9716;SDS011;4897;43.570;27.832;2023-12-20T03:33:31;28.73;;;25.17;;
9716;SDS011;4897;43.570;27.832;2023-12-20T03:35:58;31.60;;;28.23;;
9716;SDS011;4897;43.570;27.832;2023-12-20T03:38:25;29.40;;;26.33;;
9716;SDS011;4897;43.570;27.832;2023-12-20T03:40:51;27.73;;;24.75;;
9716;SDS011;4897;43.570;27.832;2023-12-20T03:43:18;27.95;;;25.15;;
9716;SDS011;4897;43.570;27.832;2023-12-20T03:45:45;28.20;;;23.85;;
9716;SDS011;4897;43.570;27.832;2023-12-20T03:48:13;26.35;;;23.67;;
9716;SDS011;4897;43.570;27.832;2023-12-20T03:50:40;25.23;;;22.67;;
9716;SDS011;4897;43.570;27.832;2023-12-20T03:53:07;24.75;;;22.17;;
9716;SDS011;4897;43.570;27.832;2023-12-20T03:55:34;28.27;;;25.35;;
9716;SDS011;4897;43.570;27.832;2023-12-20T03:58:01;23.35;;;20.73;;
9716;SDS011;4897;43.570;27.832;2023-12-20T04:00:28;24.52;;;22.02;;
9716;SDS011;4897;43.570;27.832;2023-12-20T04:02:54;25.35;;;22.85;;
9716;SDS011;4897;43.570;27.832;2023-12-20T04:05:23;24.90;;;21.70;;
9716;SDS011;4897;43.570;27.832;2023-12-20T04:07:49;25.92;;;23.17;;
9716;SDS011;4897;43.570;27.832;2023-12-20T04:10:16;26.48;;;23.98;;
9716;SDS011;4897;43.570;27.832;2023-12-20T04:12:43;23.77;;;21.48;;
9716;SDS011;4897;43.570;27.832;2023-12-20T04:15:10;26.35;;;23.75;;
9716;SDS011;4897;43.570;27.832;2023-12-20T04:17:37;25.33;;;22.85;;
9716;SDS011;4897;43.570;27.832;2023-12-20T04:20:04;26.30;;;23.60;;
9716;SDS011;4897;43.570;27.832;2023-12-20T04:22:33;32.58;;;29.15;;
9716;SDS011;4897;43.570;27.832;2023-12-20T04:25:00;41.90;;;30.55;;
9716;SDS011;4897;43.570;27.832;2023-12-20T04:27:27;33.45;;;28.55;;
9716;SDS011;4897;43.570;27.832;2023-12-20T04:29:54;36.00;;;29.17;;
9716;SDS011;4897;43.570;27.832;2023-12-20T04:32:24;40.05;;;32.28;;
9716;SDS011;4897;43.570;27.832;2023-12-20T04:34:50;38.67;;;32.58;;
9716;SDS011;4897;43.570;27.832;2023-12-20T04:37:17;41.55;;;36.25;;
9716;SDS011;4897;43.570;27.832;2023-12-20T04:39:46;48.58;;;41.08;;
9716;SDS011;4897;43.570;27.832;2023-12-20T04:42:13;44.53;;;33.83;;
9716;SDS011;4897;43.570;27.832;2023-12-20T04:44:39;57.78;;;36.75;;
9716;SDS011;4897;43.570;27.832;2023-12-20T04:47:06;65.75;;;48.97;;
9716;SDS011;4897;43.570;27.832;2023-12-20T04:49:33;64.93;;;49.08;;
9716;SDS011;4897;43.570;27.832;2023-12-20T04:52:00;72.65;;;48.20;;
9716;SDS011;4897;43.570;27.832;2023-12-20T04:54:27;76.82;;;48.88;;
9716;SDS011;4897;43.570;27.832;2023-12-20T04:56:55;68.22;;;50.47;;
9716;SDS011;4897;43.570;27.832;2023-12-20T04:59:22;64.55;;;43.88;;
9716;SDS011;4897;43.570;27.832;2023-12-20T05:01:49;60.35;;;41.80;;
9716;SDS011;4897;43.570;27.832;2023-12-20T05:04:15;61.97;;;43.60;;
9716;SDS011;4897;43.570;27.832;2023-12-20T05:06:42;59.75;;;41.50;;
9716;SDS011;4897;43.570;27.832;2023-12-20T05:09:09;46.45;;;34.53;;
9716;SDS011;4897;43.570;27.832;2023-12-20T05:11:36;41.72;;;30.48;;
9716;SDS011;4897;43.570;27.832;2023-12-20T05:14:04;47.22;;;33.00;;
9716;SDS011;4897;43.570;27.832;2023-12-20T05:16:32;50.13;;;37.72;;
9716;SDS011;4897;43.570;27.832;2023-12-20T05:18:59;53.25;;;46.22;;
9716;SDS011;4897;43.570;27.832;2023-12-20T05:21:31;57.92;;;46.25;;
9716;SDS011;4897;43.570;27.832;2023-12-20T05:23:58;59.53;;;40.55;;
9716;SDS011;4897;43.570;27.832;2023-12-20T05:26:26;58.35;;;41.58;;
9716;SDS011;4897;43.570;27.832;2023-12-20T05:28:54;61.83;;;45.15;;
9716;SDS011;4897;43.570;27.832;2023-12-20T05:31:22;63.78;;;47.35;;
9716;SDS011;4897;43.570;27.832;2023-12-20T05:33:49;63.78;;;48.80;;
9716;SDS011;4897;43.570;27.832;2023-12-20T05:36:16;71.05;;;53.08;;
9716;SDS011;4897;43.570;27.832;2023-12-20T05:38:43;81.78;;;58.92;;
9716;SDS011;4897;43.570;27.832;2023-12-20T05:41:09;74.63;;;53.42;;
9716;SDS011;4897;43.570;27.832;2023-12-20T05:43:36;74.85;;;54.10;;
9716;SDS011;4897;43.570;27.832;2023-12-20T05:46:03;77.03;;;54.30;;
9716;SDS011;4897;43.570;27.832;2023-12-20T05:48:31;79.95;;;54.35;;
9716;SDS011;4897;43.570;27.832;2023-12-20T05:50:58;76.80;;;52.55;;
9716;SDS011;4897;43.570;27.832;2023-12-20T05:53:25;72.40;;;52.03;;
9716;SDS011;4897;43.570;27.832;2023-12-20T05:55:52;77.30;;;50.22;;
9716;SDS011;4897;43.570;27.832;2023-12-20T05:58:19;79.93;;;49.67;;
9716;SDS011;4897;43.570;27.832;2023-12-20T06:00:46;69.63;;;48.90;;
9716;SDS011;4897;43.570;27.832;2023-12-20T06:03:14;68.68;;;46.63;;
9716;SDS011;4897;43.570;27.832;2023-12-20T06:05:48;71.57;;;46.92;;
9716;SDS011;4897;43.570;27.832;2023-12-20T06:08:14;74.32;;;48.75;;
9716;SDS011;4897;43.570;27.832;2023-12-20T06:10:41;115.00;;;67.93;;
9716;SDS011;4897;43.570;27.832;2023-12-20T06:13:08;113.10;;;75.13;;
9716;SDS011;4897;43.570;27.832;2023-12-20T06:15:35;119.68;;;75.43;;
9716;SDS011;4897;43.570;27.832;2023-12-20T06:18:05;131.93;;;79.38;;
9716;SDS011;4897;43.570;27.832;2023-12-20T06:20:32;112.75;;;68.53;;
9716;SDS011;4897;43.570;27.832;2023-12-20T06:23:00;100.88;;;63.38;;
9716;SDS011;4897;43.570;27.832;2023-12-20T06:25:27;86.82;;;54.35;;
9716;SDS011;4897;43.570;27.832;2023-12-20T06:27:54;74.32;;;51.88;;
9716;SDS011;4897;43.570;27.832;2023-12-20T06:30:21;79.28;;;56.75;;
9716;SDS011;4897;43.570;27.832;2023-12-20T06:32:50;74.20;;;54.33;;
9716;SDS011;4897;43.570;27.832;2023-12-20T06:35:18;61.28;;;44.65;;
9716;SDS011;4897;43.570;27.832;2023-12-20T06:37:45;112.63;;;81.13;;
9716;SDS011;4897;43.570;27.832;2023-12-20T06:40:13;58.95;;;44.97;;
9716;SDS011;4897;43.570;27.832;2023-12-20T06:42:41;64.60;;;47.05;;
9716;SDS011;4897;43.570;27.832;2023-12-20T06:45:08;87.47;;;59.28;;
9716;SDS011;4897;43.570;27.832;2023-12-20T06:47:36;82.80;;;64.25;;
9716;SDS011;4897;43.570;27.832;2023-12-20T06:50:03;108.03;;;79.22;;
9716;SDS011;4897;43.570;27.832;2023-12-20T06:52:30;118.03;;;80.70;;
9716;SDS011;4897;43.570;27.832;2023-12-20T06:54:57;138.80;;;96.25;;
9716;SDS011;4897;43.570;27.832;2023-12-20T06:57:25;146.27;;;101.93;;
9716;SDS011;4897;43.570;27.832;2023-12-20T06:59:52;111.75;;;82.68;;
9716;SDS011;4897;43.570;27.832;2023-12-20T07:02:19;108.43;;;72.47;;
9716;SDS011;4897;43.570;27.832;2023-12-20T07:04:47;97.15;;;66.72;;
9716;SDS011;4897;43.570;27.832;2023-12-20T07:07:14;93.53;;;62.03;;
9716;SDS011;4897;43.570;27.832;2023-12-20T07:09:41;111.55;;;72.22;;
9716;SDS011;4897;43.570;27.832;2023-12-20T07:12:08;138.50;;;87.43;;
9716;SDS011;4897;43.570;27.832;2023-12-20T07:14:36;108.55;;;64.10;;
9716;SDS011;4897;43.570;27.832;2023-12-20T07:17:03;76.90;;;54.97;;
9716;SDS011;4897;43.570;27.832;2023-12-20T07:19:30;61.88;;;47.25;;
9716;SDS011;4897;43.570;27.832;2023-12-20T07:21:57;48.13;;;37.25;;
9716;SDS011;4897;43.570;27.832;2023-12-20T07:24:24;58.85;;;46.72;;
9716;SDS011;4897;43.570;27.832;2023-12-20T07:26:51;64.05;;;48.63;;
9716;SDS011;4897;43.570;27.832;2023-12-20T07:29:18;63.10;;;46.65;;
9716;SDS011;4897;43.570;27.832;2023-12-20T07:31:46;36.70;;;29.73;;
9716;SDS011;4897;43.570;27.832;2023-12-20T07:34:13;39.88;;;30.63;;
9716;SDS011;4897;43.570;27.832;2023-12-20T07:36:40;32.67;;;28.77;;
9716;SDS011;4897;43.570;27.832;2023-12-20T07:39:07;32.33;;;28.90;;
9716;SDS011;4897;43.570;27.832;2023-12-20T07:41:35;29.42;;;25.35;;
9716;SDS011;4897;43.570;27.832;2023-12-20T07:44:03;22.63;;;20.52;;
9716;SDS011;4897;43.570;27.832;2023-12-20T07:46:30;18.35;;;16.85;;
9716;SDS011;4897;43.570;27.832;2023-12-20T07:48:58;16.85;;;15.52;;
9716;SDS011;4897;43.570;27.832;2023-12-20T07:51:25;21.67;;;19.38;;
9716;SDS011;4897;43.570;27.832;2023-12-20T07:53:52;22.92;;;20.63;;
9716;SDS011;4897;43.570;27.832;2023-12-20T07:56:19;26.08;;;23.38;;
9716;SDS011;4897;43.570;27.832;2023-12-20T07:58:46;18.02;;;16.63;;
9716;SDS011;4897;43.570;27.832;2023-12-20T08:01:15;21.05;;;19.15;;
9716;SDS011;4897;43.570;27.832;2023-12-20T08:03:42;22.70;;;20.52;;
9716;SDS011;4897;43.570;27.832;2023-12-20T08:06:10;23.58;;;21.25;;
9716;SDS011;4897;43.570;27.832;2023-12-20T08:08:37;23.15;;;20.77;;
9716;SDS011;4897;43.570;27.832;2023-12-20T08:11:04;19.67;;;17.88;;
9716;SDS011;4897;43.570;27.832;2023-12-20T08:13:31;16.65;;;15.32;;
9716;SDS011;4897;43.570;27.832;2023-12-20T08:15:58;16.80;;;15.30;;
9716;SDS011;4897;43.570;27.832;2023-12-20T08:18:25;18.20;;;16.75;;
9716;SDS011;4897;43.570;27.832;2023-12-20T08:20:52;16.13;;;14.93;;
9716;SDS011;4897;43.570;27.832;2023-12-20T08:23:20;15.63;;;14.32;;
9716;SDS011;4897;43.570;27.832;2023-12-20T08:25:47;18.52;;;16.60;;
9716;SDS011;4897;43.570;27.832;2023-12-20T08:28:14;23.55;;;15.68;;
9716;SDS011;4897;43.570;27.832;2023-12-20T08:30:44;18.25;;;16.67;;
9716;SDS011;4897;43.570;27.832;2023-12-20T08:33:11;21.38;;;19.23;;
9716;SDS011;4897;43.570;27.832;2023-12-20T08:35:38;20.17;;;18.30;;
9716;SDS011;4897;43.570;27.832;2023-12-20T08:38:06;20.00;;;18.17;;
9716;SDS011;4897;43.570;27.832;2023-12-20T08:40:37;19.38;;;17.65;;
9716;SDS011;4897;43.570;27.832;2023-12-20T08:43:04;18.83;;;16.92;;
9716;SDS011;4897;43.570;27.832;2023-12-20T08:45:31;18.05;;;16.42;;
9716;SDS011;4897;43.570;27.832;2023-12-20T08:47:57;16.42;;;14.82;;
9716;SDS011;4897;43.570;27.832;2023-12-20T08:50:25;16.70;;;15.35;;
9716;SDS011;4897;43.570;27.832;2023-12-20T08:52:51;17.25;;;15.88;;
9716;SDS011;4897;43.570;27.832;2023-12-20T08:55:18;16.92;;;15.52;;
9716;SDS011;4897;43.570;27.832;2023-12-20T08:57:47;17.35;;;15.93;;
9716;SDS011;4897;43.570;27.832;2023-12-20T09:00:14;16.80;;;15.50;;
9716;SDS011;4897;43.570;27.832;2023-12-20T09:02:41;18.55;;;16.95;;
9716;SDS011;4897;43.570;27.832;2023-12-20T09:05:08;18.90;;;17.30;;
9716;SDS011;4897;43.570;27.832;2023-12-20T09:07:37;17.60;;;16.30;;
9716;SDS011;4897;43.570;27.832;2023-12-20T09:10:04;17.95;;;16.50;;
9716;SDS011;4897;43.570;27.832;2023-12-20T09:12:31;18.65;;;16.83;;
9716;SDS011;4897;43.570;27.832;2023-12-20T09:15:00;17.45;;;16.15;;
9716;SDS011;4897;43.570;27.832;2023-12-20T09:17:28;18.65;;;16.95;;
9716;SDS011;4897;43.570;27.832;2023-12-20T09:19:55;21.48;;;19.65;;
9716;SDS011;4897;43.570;27.832;2023-12-20T09:22:22;18.58;;;17.23;;
9716;SDS011;4897;43.570;27.832;2023-12-20T09:24:49;18.75;;;16.80;;
9716;SDS011;4897;43.570;27.832;2023-12-20T09:27:22;19.13;;;17.38;;
9716;SDS011;4897;43.570;27.832;2023-12-20T09:29:52;19.05;;;17.45;;
9716;SDS011;4897;43.570;27.832;2023-12-20T09:32:20;18.08;;;16.48;;
9716;SDS011;4897;43.570;27.832;2023-12-20T09:34:47;19.85;;;18.23;;
9716;SDS011;4897;43.570;27.832;2023-12-20T09:37:14;17.75;;;16.35;;
9716;SDS011;4897;43.570;27.832;2023-12-20T09:39:41;17.70;;;16.30;;
9716;SDS011;4897;43.570;27.832;2023-12-20T09:42:10;18.52;;;17.23;;
9716;SDS011;4897;43.570;27.832;2023-12-20T09:44:43;17.90;;;16.60;;
9716;SDS011;4897;43.570;27.832;2023-12-20T09:47:10;19.02;;;17.50;;
9716;SDS011;4897;43.570;27.832;2023-12-20T09:49:39;17.63;;;16.23;;
9716;SDS011;4897;43.570;27.832;2023-12-20T09:52:11;18.98;;;17.27;;
9716;SDS011;4897;43.570;27.832;2023-12-20T09:54:40;16.45;;;15.27;;
9716;SDS011;4897;43.570;27.832;2023-12-20T09:57:08;17.95;;;16.65;;
9716;SDS011;4897;43.570;27.832;2023-12-20T09:59:36;17.50;;;16.13;;
9716;SDS011;4897;43.570;27.832;2023-12-20T10:02:03;17.42;;;16.20;;
9716;SDS011;4897;43.570;27.832;2023-12-20T10:04:35;18.02;;;16.60;;
9716;SDS011;4897;43.570;27.832;2023-12-20T10:07:04;17.60;;;16.30;;
9716;SDS011;4897;43.570;27.832;2023-12-20T10:09:32;19.45;;;17.75;;
9716;SDS011;4897;43.570;27.832;2023-12-20T10:12:02;19.20;;;17.67;;
9716;SDS011;4897;43.570;27.832;2023-12-20T10:14:31;19.98;;;18.17;;
9716;SDS011;4897;43.570;27.832;2023-12-20T10:17:01;18.75;;;17.17;;
9716;SDS011;4897;43.570;27.832;2023-12-20T10:19:29;18.88;;;17.38;;
9716;SDS011;4897;43.570;27.832;2023-12-20T10:21:56;20.33;;;18.73;;
9716;SDS011;4897;43.570;27.832;2023-12-20T10:24:27;20.63;;;18.77;;
9716;SDS011;4897;43.570;27.832;2023-12-20T10:27:01;21.63;;;19.73;;
9716;SDS011;4897;43.570;27.832;2023-12-20T10:29:31;18.30;;;16.80;;
9716;SDS011;4897;43.570;27.832;2023-12-20T10:31:59;18.17;;;16.80;;
9716;SDS011;4897;43.570;27.832;2023-12-20T10:34:26;17.63;;;16.33;;
9716;SDS011;4897;43.570;27.832;2023-12-20T10:36:53;18.75;;;17.15;;
9716;SDS011;4897;43.570;27.832;2023-12-20T10:39:20;19.67;;;17.92;;
9716;SDS011;4897;43.570;27.832;2023-12-20T10:41:49;17.73;;;16.33;;
9716;SDS011;4897;43.570;27.832;2023-12-20T10:44:16;18.42;;;16.92;;
9716;SDS011;4897;43.570;27.832;2023-12-20T10:46:45;19.92;;;18.33;;
9716;SDS011;4897;43.570;27.832;2023-12-20T10:49:16;18.58;;;17.15;;
9716;SDS011;4897;43.570;27.832;2023-12-20T10:51:46;19.88;;;17.95;;
9716;SDS011;4897;43.570;27.832;2023-12-20T10:54:14;20.50;;;18.90;;
9716;SDS011;4897;43.570;27.832;2023-12-20T10:56:42;18.95;;;17.20;;
9716;SDS011;4897;43.570;27.832;2023-12-20T10:59:11;19.13;;;17.52;;
9716;SDS011;4897;43.570;27.832;2023-12-20T11:01:40;20.02;;;18.42;;
9716;SDS011;4897;43.570;27.832;2023-12-20T11:04:09;16.00;;;14.80;;
9716;SDS011;4897;43.570;27.832;2023-12-20T11:06:40;16.13;;;14.73;;
9716;SDS011;4897;43.570;27.832;2023-12-20T11:09:14;17.10;;;13.68;;
9716;SDS011;4897;43.570;27.832;2023-12-20T11:11:52;16.75;;;14.50;;
9716;SDS011;4897;43.570;27.832;2023-12-20T11:14:31;18.58;;;16.83;;
9716;SDS011;4897;43.570;27.832;2023-12-20T11:17:08;17.65;;;16.33;;
9716;SDS011;4897;43.570;27.832;2023-12-20T11:19:37;17.63;;;16.23;;
9716;SDS011;4897;43.570;27.832;2023-12-20T11:22:10;19.08;;;17.25;;
9716;SDS011;4897;43.570;27.832;2023-12-20T11:24:38;17.23;;;15.93;;
9716;SDS011;4897;43.570;27.832;2023-12-20T11:27:12;19.52;;;17.88;;
9716;SDS011;4897;43.570;27.832;2023-12-20T11:29:41;18.45;;;16.95;;
9716;SDS011;4897;43.570;27.832;2023-12-20T11:34:57;17.58;;;16.10;;
9716;SDS011;4897;43.570;27.832;2023-12-20T11:37:28;16.30;;;14.70;;
9716;SDS011;4897;43.570;27.832;2023-12-20T11:40:00;14.85;;;13.55;;
9716;SDS011;4897;43.570;27.832;2023-12-20T11:42:32;16.42;;;14.90;;
9716;SDS011;4897;43.570;27.832;2023-12-20T11:45:02;16.02;;;14.50;;
9716;SDS011;4897;43.570;27.832;2023-12-20T11:47:30;18.70;;;17.02;;
9716;SDS011;4897;43.570;27.832;2023-12-20T11:49:57;16.63;;;15.13;;
9716;SDS011;4897;43.570;27.832;2023-12-20T11:52:25;15.90;;;14.60;;
9716;SDS011;4897;43.570;27.832;2023-12-20T11:54:56;21.67;;;16.55;;
9716;SDS011;4897;43.570;27.832;2023-12-20T11:57:23;17.02;;;15.55;;
9716;SDS011;4897;43.570;27.832;2023-12-20T11:59:51;17.17;;;15.57;;
9716;SDS011;4897;43.570;27.832;2023-12-20T12:02:20;17.98;;;16.48;;
9716;SDS011;4897;43.570;27.832;2023-12-20T12:04:49;16.95;;;15.50;;
9716;SDS011;4897;43.570;27.832;2023-12-20T12:07:16;17.45;;;16.05;;
9716;SDS011;4897;43.570;27.832;2023-12-20T12:09:43;17.83;;;16.38;;
9716;SDS011;4897;43.570;27.832;2023-12-20T12:12:10;17.33;;;16.00;;
9716;SDS011;4897;43.570;27.832;2023-12-20T12:14:38;18.40;;;16.90;;
9716;SDS011;4897;43.570;27.832;2023-12-20T12:17:11;18.98;;;17.38;;
9716;SDS011;4897;43.570;27.832;2023-12-20T12:19:40;18.73;;;16.90;;
9716;SDS011;4897;43.570;27.832;2023-12-20T12:22:07;21.67;;;20.17;;
9716;SDS011;4897;43.570;27.832;2023-12-20T12:24:38;18.40;;;16.85;;
9716;SDS011;4897;43.570;27.832;2023-12-20T12:27:14;17.67;;;16.25;;
9716;SDS011;4897;43.570;27.832;2023-12-20T12:32:27;16.08;;;14.88;;
9716;SDS011;4897;43.570;27.832;2023-12-20T12:34:55;15.90;;;14.60;;
9716;SDS011;4897;43.570;27.832;2023-12-20T12:37:22;21.02;;;16.20;;
9716;SDS011;4897;43.570;27.832;2023-12-20T12:39:53;16.85;;;15.15;;
9716;SDS011;4897;43.570;27.832;2023-12-20T12:42:20;18.73;;;16.92;;
9716;SDS011;4897;43.570;27.832;2023-12-20T12:44:50;16.58;;;15.25;;
9716;SDS011;4897;43.570;27.832;2023-12-20T12:47:17;15.50;;;14.27;;
9716;SDS011;4897;43.570;27.832;2023-12-20T12:49:45;16.63;;;15.32;;
9716;SDS011;4897;43.570;27.832;2023-12-20T12:52:13;17.10;;;15.70;;
9716;SDS011;4897;43.570;27.832;2023-12-20T12:54:41;17.08;;;15.20;;
9716;SDS011;4897;43.570;27.832;2023-12-20T12:57:10;16.88;;;15.32;;
9716;SDS011;4897;43.570;27.832;2023-12-20T12:59:37;17.42;;;15.70;;
9716;SDS011;4897;43.570;27.832;2023-12-20T13:02:05;17.25;;;14.98;;
9716;SDS011;4897;43.570;27.832;2023-12-20T13:04:33;16.95;;;15.45;;
9716;SDS011;4897;43.570;27.832;2023-12-20T13:07:00;16.42;;;15.13;;
9716;SDS011;4897;43.570;27.832;2023-12-20T13:09:28;16.05;;;14.68;;
9716;SDS011;4897;43.570;27.832;2023-12-20T13:11:55;18.08;;;16.15;;
9716;SDS011;4897;43.570;27.832;2023-12-20T13:14:22;18.00;;;16.38;;
9716;SDS011;4897;43.570;27.832;2023-12-20T13:16:49;16.30;;;14.65;;
9716;SDS011;4897;43.570;27.832;2023-12-20T13:19:16;17.30;;;15.80;;
9716;SDS011;4897;43.570;27.832;2023-12-20T13:21:43;16.67;;;15.27;;
9716;SDS011;4897;43.570;27.832;2023-12-20T13:24:10;16.83;;;15.32;;
9716;SDS011;4897;43.570;27.832;2023-12-20T13:26:38;17.75;;;16.10;;
9716;SDS011;4897;43.570;27.832;2023-12-20T13:29:05;18.25;;;16.45;;
9716;SDS011;4897;43.570;27.832;2023-12-20T13:31:32;21.98;;;19.67;;
9716;SDS011;4897;43.570;27.832;2023-12-20T13:33:58;21.42;;;19.33;;
9716;SDS011;4897;43.570;27.832;2023-12-20T13:36:25;18.33;;;16.60;;
9716;SDS011;4897;43.570;27.832;2023-12-20T13:38:54;16.98;;;15.57;;
9716;SDS011;4897;43.570;27.832;2023-12-20T13:41:21;22.60;;;20.23;;
9716;SDS011;4897;43.570;27.832;2023-12-20T13:43:49;18.25;;;16.02;;
9716;SDS011;4897;43.570;27.832;2023-12-20T13:46:16;22.67;;;18.48;;
9716;SDS011;4897;43.570;27.832;2023-12-20T13:48:43;21.48;;;19.48;;
9716;SDS011;4897;43.570;27.832;2023-12-20T13:51:10;22.10;;;20.00;;
9716;SDS011;4897;43.570;27.832;2023-12-20T13:53:37;21.00;;;19.10;;
9716;SDS011;4897;43.570;27.832;2023-12-20T13:56:07;32.25;;;25.75;;
9716;SDS011;4897;43.570;27.832;2023-12-20T13:58:34;29.02;;;20.88;;
9716;SDS011;4897;43.570;27.832;2023-12-20T14:01:02;36.78;;;26.65;;
9716;SDS011;4897;43.570;27.832;2023-12-20T14:03:30;24.80;;;20.05;;
9716;SDS011;4897;43.570;27.832;2023-12-20T14:05:57;26.23;;;21.33;;
9716;SDS011;4897;43.570;27.832;2023-12-20T14:08:24;22.25;;;19.88;;
9716;SDS011;4897;43.570;27.832;2023-12-20T14:10:52;29.35;;;24.45;;
9716;SDS011;4897;43.570;27.832;2023-12-20T14:13:19;21.08;;;18.95;;
9716;SDS011;4897;43.570;27.832;2023-12-20T14:15:47;29.75;;;18.58;;
9716;SDS011;4897;43.570;27.832;2023-12-20T14:18:16;26.77;;;22.25;;
9716;SDS011;4897;43.570;27.832;2023-12-20T14:20:43;31.70;;;25.85;;
9716;SDS011;4897;43.570;27.832;2023-12-20T14:23:12;21.85;;;19.65;;
9716;SDS011;4897;43.570;27.832;2023-12-20T14:25:40;20.17;;;18.02;;
9716;SDS011;4897;43.570;27.832;2023-12-20T14:28:07;19.83;;;17.65;;
9716;SDS011;4897;43.570;27.832;2023-12-20T14:30:35;16.63;;;15.20;;
9716;SDS011;4897;43.570;27.832;2023-12-20T14:33:03;20.42;;;18.13;;
9716;SDS011;4897;43.570;27.832;2023-12-20T14:35:32;20.33;;;16.58;;
9716;SDS011;4897;43.570;27.832;2023-12-20T14:37:59;17.05;;;15.35;;
9716;SDS011;4897;43.570;27.832;2023-12-20T14:40:26;24.63;;;19.23;;
9716;SDS011;4897;43.570;27.832;2023-12-20T14:42:53;20.43;;;18.40;;